createdAt,value
2022-11-29T00:02:55.157Z,18.07
2022-11-29T00:03:56.973Z,17.43
2022-11-29T00:04:58.483Z,18.57
2022-11-29T00:06:10.138Z,17.83
2022-11-29T00:07:11.548Z,18.23
2022-11-29T00:08:13.651Z,17.80
2022-11-29T00:09:15.052Z,18.30
2022-11-29T00:10:16.505Z,17.40
2022-11-29T00:11:39.149Z,17.93
2022-11-29T00:12:40.686Z,18.57
2022-11-29T00:13:42.094Z,18.33
2022-11-29T00:14:43.976Z,18.03
2022-11-29T00:15:46.007Z,18.27
2022-11-29T00:16:51.895Z,17.00
2022-11-29T00:17:53.583Z,17.90
2022-11-29T00:18:55.135Z,17.40
2022-11-29T00:19:56.896Z,17.17
2022-11-29T00:20:58.910Z,18.67
2022-11-29T00:22:00.843Z,16.70
2022-11-29T00:23:02.284Z,16.07
2022-11-29T00:24:04.048Z,18.90
2022-11-29T00:25:06.057Z,16.60
2022-11-29T00:26:08.124Z,18.50
2022-11-29T00:27:09.628Z,17.37
2022-11-29T00:28:11.049Z,17.37
2022-11-29T00:29:12.998Z,16.33
2022-11-29T00:30:14.506Z,18.27
2022-11-29T00:31:17.067Z,18.17
2022-11-29T00:32:18.534Z,15.70
2022-11-29T00:33:20.139Z,16.10
2022-11-29T00:34:21.714Z,17.83
2022-11-29T00:35:23.185Z,16.60
2022-11-29T00:36:24.921Z,16.50
2022-11-29T00:37:26.359Z,16.27
2022-11-29T00:38:27.852Z,17.40
2022-11-29T00:39:29.205Z,17.30
2022-11-29T00:40:30.537Z,16.10
2022-11-29T00:41:32.026Z,16.37
2022-11-29T00:42:33.454Z,17.13
2022-11-29T00:43:34.958Z,18.17
2022-11-29T00:44:36.334Z,17.10
2022-11-29T00:45:37.817Z,16.10
2022-11-29T00:46:39.254Z,16.50
2022-11-29T00:47:40.722Z,16.47
2022-11-29T00:48:42.083Z,16.83
2022-11-29T00:49:43.667Z,16.97
2022-11-29T00:50:45.114Z,17.67
2022-11-29T00:51:46.587Z,16.37
2022-11-29T00:52:47.934Z,16.60
2022-11-29T00:53:49.397Z,15.83
2022-11-29T00:54:50.773Z,17.80
2022-11-29T00:55:52.554Z,16.67
2022-11-29T00:56:54.714Z,16.83
2022-11-29T00:57:56.310Z,16.53
2022-11-29T00:58:58.335Z,17.77
2022-11-29T00:59:59.926Z,17.97
2022-11-29T01:01:01.508Z,16.90
2022-11-29T01:02:03.100Z,17.23
2022-11-29T01:03:04.686Z,17.83
2022-11-29T01:04:06.174Z,17.77
2022-11-29T01:05:08.103Z,16.63
2022-11-29T01:06:11.566Z,16.20
2022-11-29T01:07:13.213Z,17.07
2022-11-29T01:08:15.338Z,17.13
2022-11-29T01:09:16.933Z,17.47
2022-11-29T01:10:18.371Z,20.90
2022-11-29T01:11:21.154Z,17.47
2022-11-29T01:12:22.583Z,18.60
2022-11-29T01:13:23.964Z,18.37
2022-11-29T01:14:25.339Z,19.77
2022-11-29T01:15:26.913Z,18.33
2022-11-29T01:16:29.102Z,17.07
2022-11-29T01:17:30.626Z,18.80
2022-11-29T01:18:32.437Z,17.20
2022-11-29T01:19:33.937Z,19.07
2022-11-29T01:20:35.526Z,21.00
2022-11-29T01:21:37.142Z,20.57
2022-11-29T01:22:39.302Z,21.33
2022-11-29T01:23:41.305Z,18.93
2022-11-29T01:24:43.079Z,18.63
2022-11-29T01:25:44.580Z,18.63
2022-11-29T01:26:45.985Z,19.33
2022-11-29T01:27:47.414Z,18.97
2022-11-29T01:28:50.899Z,19.40
2022-11-29T01:29:52.293Z,17.40
2022-11-29T01:30:54.119Z,18.20
2022-11-29T01:31:55.697Z,17.67
2022-11-29T01:32:57.079Z,17.67
2022-11-29T01:33:59.563Z,19.83
2022-11-29T01:35:01.038Z,17.70
2022-11-29T01:36:03.265Z,18.30
2022-11-29T01:37:04.761Z,20.30
2022-11-29T01:38:06.243Z,18.07
2022-11-29T01:39:07.657Z,17.33
2022-11-29T01:40:09.316Z,19.40
2022-11-29T01:41:14.851Z,19.20
2022-11-29T01:42:16.439Z,16.00
2022-11-29T01:43:18.162Z,18.40
2022-11-29T01:44:19.554Z,17.77
2022-11-29T01:45:25.040Z,17.87
2022-11-29T01:46:27.591Z,16.40
2022-11-29T01:47:29.465Z,16.87
2022-11-29T01:48:32.206Z,17.27
2022-11-29T01:49:36.035Z,17.53
2022-11-29T01:50:38.143Z,18.97
2022-11-29T01:51:41.657Z,17.80
2022-11-29T01:52:43.192Z,18.27
2022-11-29T01:53:44.614Z,18.33
2022-11-29T01:54:48.149Z,17.70
2022-11-29T01:55:53.122Z,17.37
2022-11-29T01:56:54.798Z,16.93
2022-11-29T01:57:56.183Z,17.13
2022-11-29T01:58:57.614Z,15.77
2022-11-29T02:00:01.962Z,15.93
2022-11-29T02:01:14.436Z,16.10
2022-11-29T02:02:18.208Z,16.87
2022-11-29T02:03:19.613Z,16.20
2022-11-29T02:04:21.003Z,18.23
2022-11-29T02:05:23.212Z,19.07
2022-11-29T02:06:24.882Z,18.03
2022-11-29T02:07:26.419Z,17.43
2022-11-29T02:08:33.333Z,15.70
2022-11-29T02:09:34.745Z,17.20
2022-11-29T02:10:51.008Z,16.83
2022-11-29T02:12:11.104Z,16.20
2022-11-29T02:13:32.754Z,15.33
2022-11-29T02:14:40.057Z,17.10
2022-11-29T02:15:44.180Z,16.30
2022-11-29T02:16:53.546Z,17.80
2022-11-29T02:18:15.529Z,16.87
2022-11-29T02:19:35.605Z,18.30
2022-11-29T02:20:52.407Z,17.17
2022-11-29T02:22:05.531Z,17.70
2022-11-29T02:23:12.743Z,16.33
2022-11-29T02:24:26.339Z,17.63
2022-11-29T02:25:46.685Z,19.47
2022-11-29T02:26:58.988Z,18.17
2022-11-29T02:28:09.222Z,18.27
2022-11-29T02:29:29.666Z,19.57
2022-11-29T02:30:53.489Z,17.13
2022-11-29T02:32:13.342Z,17.77
2022-11-29T02:33:33.778Z,17.30
2022-11-29T02:34:53.252Z,17.33
2022-11-29T02:35:54.573Z,19.43
2022-11-29T02:36:58.883Z,17.13
2022-11-29T02:38:03.352Z,18.07
2022-11-29T02:39:07.960Z,20.80
2022-11-29T02:40:16.961Z,17.73
2022-11-29T02:41:27.820Z,15.73
2022-11-29T02:42:56.254Z,20.23
2022-11-29T02:44:01.445Z,17.03
2022-11-29T02:45:18.820Z,18.80
2022-11-29T02:46:20.151Z,18.50
2022-11-29T02:47:35.714Z,19.13
2022-11-29T02:48:57.292Z,18.00
2022-11-29T02:50:10.966Z,16.37
2022-11-29T02:51:12.271Z,18.37
2022-11-29T02:52:22.237Z,17.00
2022-11-29T02:53:29.766Z,17.53
2022-11-29T02:54:34.158Z,17.97
2022-11-29T02:55:41.109Z,19.40
2022-11-29T02:57:01.306Z,17.00
2022-11-29T02:58:08.840Z,19.57
2022-11-29T02:59:42.736Z,18.83
2022-11-29T03:00:50.075Z,19.93
2022-11-29T03:02:10.138Z,19.23
2022-11-29T03:03:18.289Z,18.53
2022-11-29T03:04:28.677Z,19.07
2022-11-29T03:05:36.097Z,21.17
2022-11-29T03:06:37.543Z,17.60
2022-11-29T03:07:48.396Z,21.80
2022-11-29T03:08:54.160Z,18.20
2022-11-29T03:10:01.659Z,19.53
2022-11-29T03:11:25.708Z,17.50
2022-11-29T03:12:41.296Z,18.53
2022-11-29T03:13:57.741Z,19.23
2022-11-29T03:15:11.385Z,18.43
2022-11-29T03:16:28.685Z,19.63
2022-11-29T03:17:48.879Z,20.00
2022-11-29T03:18:56.152Z,17.37
2022-11-29T03:20:16.438Z,19.07
2022-11-29T03:21:23.222Z,20.23
2022-11-29T03:22:30.849Z,19.60
2022-11-29T03:23:43.404Z,17.97
2022-11-29T03:24:53.834Z,16.80
2022-11-29T03:25:59.164Z,20.30
2022-11-29T03:27:11.891Z,18.43
2022-11-29T03:28:24.677Z,17.67
2022-11-29T03:29:37.885Z,16.23
2022-11-29T03:30:40.995Z,19.53
2022-11-29T03:31:47.679Z,18.33
2022-11-29T03:32:54.912Z,18.60
2022-11-29T03:33:59.288Z,17.20
2022-11-29T03:35:17.089Z,18.27
2022-11-29T03:36:25.593Z,18.17
2022-11-29T03:37:30.119Z,18.07
2022-11-29T03:38:42.514Z,19.10
2022-11-29T03:39:43.830Z,18.57
2022-11-29T03:40:52.502Z,19.50
2022-11-29T03:41:59.853Z,18.77
2022-11-29T03:43:06.847Z,19.43
2022-11-29T03:44:17.428Z,19.80
2022-11-29T03:45:22.693Z,19.33
2022-11-29T03:46:34.965Z,18.23
2022-11-29T03:47:51.082Z,19.00
2022-11-29T03:48:59.438Z,21.10
2022-11-29T03:50:03.543Z,18.60
2022-11-29T03:51:17.591Z,19.50
2022-11-29T03:52:21.966Z,22.17
2022-11-29T03:53:41.880Z,19.20
2022-11-29T03:54:50.764Z,19.73
2022-11-29T03:56:15.529Z,17.97
2022-11-29T03:57:20.610Z,19.33
2022-11-29T03:58:24.966Z,17.47
2022-11-29T03:59:35.312Z,18.13
2022-11-29T04:00:48.680Z,19.37
2022-11-29T04:02:08.574Z,20.87
2022-11-29T04:03:28.785Z,19.73
2022-11-29T04:04:46.035Z,21.07
2022-11-29T04:05:47.489Z,20.17
2022-11-29T04:06:48.799Z,19.80
2022-11-29T04:07:56.156Z,20.20
2022-11-29T04:09:05.713Z,22.67
2022-11-29T04:10:27.074Z,19.77
2022-11-29T04:11:34.889Z,20.17
2022-11-29T04:12:36.245Z,21.97
2022-11-29T04:14:05.053Z,18.97
2022-11-29T04:15:18.814Z,20.13
2022-11-29T04:16:23.074Z,18.63
2022-11-29T04:17:35.284Z,19.63
2022-11-29T04:18:42.660Z,19.73
2022-11-29T04:19:50.189Z,20.10
2022-11-29T04:21:10.591Z,18.93
2022-11-29T04:22:30.830Z,19.43
2022-11-29T04:23:51.217Z,18.47
2022-11-29T04:25:00.910Z,18.57
2022-11-29T04:26:08.318Z,18.50
2022-11-29T04:27:16.079Z,17.83
2022-11-29T04:28:23.540Z,17.73
2022-11-29T04:29:39.068Z,17.87
2022-11-29T04:30:43.340Z,18.67
2022-11-29T04:31:47.772Z,19.70
2022-11-29T04:33:08.044Z,18.77
2022-11-29T04:34:28.462Z,20.27
2022-11-29T04:35:30.552Z,19.00
2022-11-29T04:36:46.386Z,19.30
2022-11-29T04:37:57.430Z,18.33
2022-11-29T04:38:58.779Z,18.07
2022-11-29T04:40:09.149Z,18.40
2022-11-29T04:41:13.609Z,19.17
2022-11-29T04:42:33.830Z,18.43
2022-11-29T04:43:54.889Z,19.80
2022-11-29T04:44:59.318Z,21.33
2022-11-29T04:46:09.716Z,18.00
2022-11-29T04:47:14.320Z,18.63
2022-11-29T04:48:18.849Z,19.93
2022-11-29T04:49:26.363Z,19.50
2022-11-29T04:50:48.247Z,17.57
2022-11-29T04:52:01.864Z,21.57
2022-11-29T04:53:17.988Z,22.13
2022-11-29T04:54:33.058Z,19.83
2022-11-29T04:55:37.496Z,22.73
2022-11-29T04:56:50.747Z,21.07
2022-11-29T04:57:57.734Z,20.93
2022-11-29T04:59:17.381Z,19.73
2022-11-29T05:00:20.602Z,22.10
2022-11-29T05:01:32.826Z,22.33
2022-11-29T05:02:51.406Z,21.30
2022-11-29T05:04:02.496Z,22.07
2022-11-29T05:05:13.398Z,22.80
2022-11-29T05:06:14.682Z,21.70
2022-11-29T05:07:22.012Z,23.10
2022-11-29T05:08:29.409Z,21.63
2022-11-29T05:09:40.999Z,23.90
2022-11-29T05:10:42.400Z,25.60
2022-11-29T05:11:54.614Z,29.63
2022-11-29T05:13:08.215Z,27.70
2022-11-29T05:14:31.299Z,30.17
2022-11-29T05:15:38.704Z,27.70
2022-11-29T05:16:43.027Z,29.60
2022-11-29T05:17:47.257Z,26.13
2022-11-29T05:18:57.745Z,26.67
2022-11-29T05:20:18.086Z,31.77
2022-11-29T05:21:35.080Z,25.33
2022-11-29T05:22:40.128Z,26.90
2022-11-29T05:23:44.779Z,27.33
2022-11-29T05:24:53.066Z,29.10
2022-11-29T05:25:54.509Z,28.77
2022-11-29T05:27:01.842Z,27.13
2022-11-29T05:28:10.222Z,25.33
2022-11-29T05:29:16.332Z,23.70
2022-11-29T05:30:22.655Z,27.83
2022-11-29T05:31:50.509Z,26.43
2022-11-29T05:32:57.998Z,26.27
2022-11-29T05:34:08.753Z,25.27
2022-11-29T05:35:29.055Z,30.33
2022-11-29T05:36:33.524Z,26.87
2022-11-29T05:37:38.401Z,28.37
2022-11-29T05:38:58.787Z,28.90
2022-11-29T05:40:19.090Z,30.97
2022-11-29T05:41:39.081Z,31.20
2022-11-29T05:42:43.919Z,31.27
2022-11-29T05:43:48.473Z,30.77
2022-11-29T05:44:53.603Z,29.37
2022-11-29T05:45:57.848Z,31.57
2022-11-29T05:47:01.205Z,30.47
2022-11-29T05:48:11.156Z,31.70
2022-11-29T05:49:12.637Z,29.90
2022-11-29T05:50:18.620Z,31.40
2022-11-29T05:51:22.119Z,33.87
2022-11-29T05:52:41.684Z,35.67
2022-11-29T05:53:48.138Z,33.53
2022-11-29T05:54:49.752Z,34.27
2022-11-29T05:56:14.692Z,34.57
2022-11-29T05:57:27.067Z,33.67
2022-11-29T05:58:43.553Z,32.97
2022-11-29T05:59:46.542Z,33.73
2022-11-29T06:00:51.709Z,32.57
2022-11-29T06:01:57.694Z,38.00
2022-11-29T06:03:04.857Z,34.23
2022-11-29T06:04:14.803Z,34.53
2022-11-29T06:05:26.145Z,32.20
2022-11-29T06:06:36.615Z,29.10
2022-11-29T06:07:51.882Z,35.43
2022-11-29T06:09:08.412Z,30.27
2022-11-29T06:10:15.016Z,33.30
2022-11-29T06:11:16.718Z,32.43
2022-11-29T06:12:22.475Z,34.07
2022-11-29T06:13:30.098Z,28.93
2022-11-29T06:14:41.485Z,35.67
2022-11-29T06:15:43.358Z,34.40
2022-11-29T06:16:51.199Z,32.53
2022-11-29T06:17:59.369Z,34.03
2022-11-29T06:19:19.506Z,30.90
2022-11-29T06:20:42.452Z,33.93
2022-11-29T06:22:00.094Z,33.93
2022-11-29T06:23:07.764Z,34.17
2022-11-29T06:24:21.889Z,32.37
2022-11-29T06:25:39.295Z,33.70
2022-11-29T06:27:04.539Z,34.37
2022-11-29T06:28:14.785Z,32.83
2022-11-29T06:29:23.938Z,32.53
2022-11-29T06:31:00.732Z,33.10
2022-11-29T06:32:06.585Z,36.17
2022-11-29T06:33:19.255Z,29.20
2022-11-29T06:34:29.152Z,33.37
2022-11-29T06:35:35.132Z,36.00
2022-11-29T06:36:52.163Z,31.10
2022-11-29T06:37:59.633Z,33.23
2022-11-29T06:39:01.334Z,29.97
2022-11-29T06:40:03.450Z,30.57
2022-11-29T06:41:05.392Z,31.33
2022-11-29T06:42:07.242Z,31.37
2022-11-29T06:43:09.078Z,30.10
2022-11-29T06:44:10.997Z,30.80
2022-11-29T06:45:13.749Z,31.83
2022-11-29T06:46:17.919Z,26.53
2022-11-29T06:47:26.229Z,29.70
2022-11-29T06:48:29.669Z,30.37
2022-11-29T06:49:33.725Z,28.53
2022-11-29T06:50:56.365Z,29.53
2022-11-29T06:52:06.451Z,26.97
2022-11-29T06:53:26.530Z,27.17
2022-11-29T06:54:33.941Z,26.77
2022-11-29T06:55:48.070Z,26.83
2022-11-29T06:56:53.255Z,27.63
2022-11-29T06:57:54.580Z,28.57
2022-11-29T06:58:59.014Z,27.73
2022-11-29T07:00:04.002Z,25.80
2022-11-29T07:01:06.132Z,27.53
2022-11-29T07:02:43.274Z,27.27
2022-11-29T07:03:47.486Z,28.13
2022-11-29T07:04:49.134Z,30.47
2022-11-29T07:05:51.014Z,25.80
2022-11-29T07:06:52.559Z,25.10
2022-11-29T07:07:55.905Z,26.10
2022-11-29T07:09:03.884Z,25.80
2022-11-29T07:10:10.595Z,27.40
2022-11-29T07:11:18.332Z,26.00
2022-11-29T07:12:20.030Z,26.17
2022-11-29T07:13:21.549Z,26.27
2022-11-29T07:14:23.074Z,25.30
2022-11-29T07:15:24.852Z,30.17
2022-11-29T07:16:40.406Z,30.20
2022-11-29T07:17:44.664Z,31.13
2022-11-29T07:19:04.969Z,30.17
2022-11-29T07:20:13.274Z,29.97
2022-11-29T07:21:14.765Z,31.57
2022-11-29T07:22:36.716Z,30.33
2022-11-29T07:24:07.402Z,29.17
2022-11-29T07:25:31.793Z,25.77
2022-11-29T07:26:43.215Z,30.87
2022-11-29T07:27:44.533Z,28.60
2022-11-29T07:28:50.845Z,26.27
2022-11-29T07:30:05.180Z,26.93
2022-11-29T07:31:14.615Z,25.77
2022-11-29T07:32:26.044Z,30.23
2022-11-29T07:33:30.553Z,28.47
2022-11-29T07:34:39.209Z,29.33
2022-11-29T07:35:43.730Z,28.87
2022-11-29T07:37:01.186Z,27.97
2022-11-29T07:38:09.910Z,29.17
2022-11-29T07:39:16.557Z,28.27
2022-11-29T07:40:27.272Z,25.33
2022-11-29T07:41:39.957Z,26.77
2022-11-29T07:42:44.474Z,29.13
2022-11-29T07:43:57.202Z,30.40
2022-11-29T07:45:01.563Z,29.60
2022-11-29T07:46:03.080Z,31.50
2022-11-29T07:47:05.648Z,26.90
2022-11-29T07:48:10.508Z,30.10
2022-11-29T07:49:11.941Z,27.30
2022-11-29T07:50:13.387Z,27.00
2022-11-29T07:51:14.781Z,28.43
2022-11-29T07:52:16.514Z,27.40
2022-11-29T07:53:18.824Z,25.20
2022-11-29T07:54:22.144Z,28.50
2022-11-29T07:55:24.755Z,29.63
2022-11-29T07:56:26.076Z,26.97
2022-11-29T07:57:27.381Z,29.93
2022-11-29T07:58:29.252Z,30.80
2022-11-29T07:59:30.624Z,30.53
2022-11-29T08:00:32.001Z,32.77
2022-11-29T08:01:33.516Z,27.37
2022-11-29T08:02:34.985Z,29.50
2022-11-29T08:03:36.438Z,28.37
2022-11-29T08:04:42.679Z,30.27
2022-11-29T08:05:47.409Z,31.17
2022-11-29T08:06:48.948Z,28.37
2022-11-29T08:07:50.342Z,30.00
2022-11-29T08:08:51.758Z,32.23
2022-11-29T08:09:53.352Z,37.73
2022-11-29T08:10:54.663Z,34.97
2022-11-29T08:11:56.094Z,34.80
2022-11-29T08:12:57.757Z,34.90
2022-11-29T08:13:59.910Z,32.53
2022-11-29T08:15:01.684Z,32.27
2022-11-29T08:16:03.165Z,33.90
2022-11-29T08:17:04.868Z,31.20
2022-11-29T08:18:06.193Z,32.43
2022-11-29T08:19:07.564Z,29.70
2022-11-29T08:20:09.597Z,29.13
2022-11-29T08:21:10.990Z,31.53
2022-11-29T08:22:12.777Z,29.00
2022-11-29T08:23:14.207Z,30.23
2022-11-29T08:24:15.542Z,30.80
2022-11-29T08:25:16.951Z,29.27
2022-11-29T08:26:18.726Z,25.37
2022-11-29T08:27:20.097Z,27.70
2022-11-29T08:28:21.534Z,27.07
2022-11-29T08:29:23.614Z,28.77
2022-11-29T08:30:25.146Z,27.20
2022-11-29T08:31:26.542Z,28.00
2022-11-29T08:32:28.241Z,31.33
2022-11-29T08:33:29.752Z,27.23
2022-11-29T08:34:31.072Z,30.60
2022-11-29T08:35:34.416Z,29.27
2022-11-29T08:36:36.081Z,31.13
2022-11-29T08:37:37.390Z,29.23
2022-11-29T08:38:38.902Z,29.70
2022-11-29T08:39:40.233Z,31.13
2022-11-29T08:40:41.651Z,28.70
2022-11-29T08:41:42.965Z,30.90
2022-11-29T08:42:44.291Z,32.93
2022-11-29T08:43:45.674Z,31.93
2022-11-29T08:44:48.034Z,30.27
2022-11-29T08:45:51.566Z,31.57
2022-11-29T08:47:11.554Z,29.67
2022-11-29T08:48:13.706Z,27.03
2022-11-29T08:49:15.032Z,28.03
2022-11-29T08:50:17.906Z,28.57
2022-11-29T08:51:19.268Z,28.83
2022-11-29T08:52:39.072Z,24.20
2022-11-29T08:53:44.645Z,29.00
2022-11-29T08:54:46.166Z,22.87
2022-11-29T08:55:47.728Z,24.80
2022-11-29T08:57:16.968Z,25.33
2022-11-29T08:58:12.003Z,25.77
2022-11-29T08:59:13.324Z,24.73
2022-11-29T09:00:15.480Z,26.50
2022-11-29T09:01:18.417Z,24.90
2022-11-29T09:02:19.943Z,23.87
2022-11-29T09:03:40.022Z,21.03
2022-11-29T09:04:41.417Z,22.50
2022-11-29T09:05:43.039Z,21.83
2022-11-29T09:06:44.510Z,22.17
2022-11-29T09:07:46.855Z,22.17
2022-11-29T09:08:48.308Z,22.17
2022-11-29T09:09:49.664Z,22.07
2022-11-29T09:10:51.086Z,24.53
2022-11-29T09:11:52.450Z,23.60
2022-11-29T09:12:54.855Z,22.83
2022-11-29T09:13:58.205Z,21.10
2022-11-29T09:14:59.686Z,23.07
2022-11-29T09:16:06.038Z,22.37
2022-11-29T09:17:07.391Z,20.47
2022-11-29T09:18:09.305Z,22.47
2022-11-29T09:19:13.542Z,20.80
2022-11-29T09:20:15.070Z,20.70
2022-11-29T09:21:16.812Z,23.83
2022-11-29T09:22:18.207Z,20.10
2022-11-29T09:23:19.527Z,20.47
2022-11-29T09:24:20.890Z,21.67
2022-11-29T09:25:22.274Z,21.07
2022-11-29T09:26:23.645Z,23.93
2022-11-29T09:27:24.958Z,20.90
2022-11-29T09:28:26.661Z,23.67
2022-11-29T09:29:27.996Z,20.17
2022-11-29T09:30:34.050Z,22.33
2022-11-29T09:31:35.540Z,22.73
2022-11-29T09:32:37.040Z,21.33
2022-11-29T09:33:39.762Z,23.73
2022-11-29T09:34:42.354Z,23.87
2022-11-29T09:35:43.892Z,24.33
2022-11-29T09:36:45.318Z,24.70
2022-11-29T09:37:46.626Z,23.90
2022-11-29T09:38:48.269Z,25.53
2022-11-29T09:39:49.560Z,26.23
2022-11-29T09:40:55.429Z,28.23
2022-11-29T09:42:18.025Z,28.03
2022-11-29T09:43:19.350Z,30.83
2022-11-29T09:44:36.657Z,34.67
2022-11-29T09:45:40.023Z,37.50
2022-11-29T09:46:44.164Z,36.33
2022-11-29T09:47:51.601Z,36.73
2022-11-29T09:49:11.786Z,39.97
2022-11-29T09:50:34.158Z,37.57
2022-11-29T09:51:44.182Z,41.37
2022-11-29T09:52:51.796Z,39.27
2022-11-29T09:54:02.236Z,41.60
2022-11-29T09:55:22.112Z,42.43
2022-11-29T09:56:35.712Z,40.23
2022-11-29T09:57:38.276Z,42.70
2022-11-29T09:58:43.669Z,42.43
2022-11-29T09:59:47.102Z,43.30
2022-11-29T10:00:49.982Z,40.97
2022-11-29T10:01:59.471Z,41.33
2022-11-29T10:03:11.358Z,41.13
2022-11-29T10:04:15.533Z,38.63
2022-11-29T10:05:18.931Z,42.97
2022-11-29T10:06:20.361Z,44.07
2022-11-29T10:07:28.069Z,46.00
2022-11-29T10:08:41.985Z,44.97
2022-11-29T10:09:50.187Z,47.13
2022-11-29T10:10:53.893Z,50.43
2022-11-29T10:12:10.522Z,45.57
2022-11-29T10:13:25.645Z,50.37
2022-11-29T10:14:30.215Z,50.67
2022-11-29T10:15:33.580Z,48.67
2022-11-29T10:16:46.743Z,50.53
2022-11-29T10:18:06.863Z,47.03
2022-11-29T10:19:17.222Z,46.83
2022-11-29T10:20:19.678Z,43.20
2022-11-29T10:21:24.362Z,44.50
2022-11-29T10:22:31.191Z,44.60
2022-11-29T10:23:43.618Z,46.43
2022-11-29T10:24:46.264Z,45.93
2022-11-29T10:25:49.044Z,42.93
2022-11-29T10:26:50.406Z,41.67
2022-11-29T10:27:52.511Z,37.57
2022-11-29T10:28:56.181Z,38.17
2022-11-29T10:30:00.851Z,38.90
2022-11-29T10:31:08.351Z,39.13
2022-11-29T10:32:12.859Z,38.07
2022-11-29T10:33:26.620Z,39.07
2022-11-29T10:34:30.534Z,39.00
2022-11-29T10:35:33.056Z,33.93
2022-11-29T10:36:39.367Z,36.57
2022-11-29T10:37:40.743Z,37.53
2022-11-29T10:38:43.897Z,35.57
2022-11-29T10:39:48.095Z,39.40
2022-11-29T10:40:51.637Z,38.80
2022-11-29T10:41:56.836Z,40.10
2022-11-29T10:42:58.367Z,39.13
2022-11-29T10:43:59.984Z,37.57
2022-11-29T10:45:01.853Z,43.60
2022-11-29T10:46:03.625Z,41.57
2022-11-29T10:47:10.435Z,38.57
2022-11-29T10:48:20.528Z,42.63
2022-11-29T10:49:23.620Z,41.57
2022-11-29T10:50:25.053Z,43.30
2022-11-29T10:51:26.505Z,41.60
2022-11-29T10:52:27.976Z,38.90
2022-11-29T10:53:35.874Z,41.23
2022-11-29T10:54:39.655Z,37.30
2022-11-29T10:55:53.706Z,35.50
2022-11-29T10:56:56.311Z,39.20
2022-11-29T10:58:07.961Z,39.90
2022-11-29T10:59:18.923Z,37.53
2022-11-29T11:00:20.297Z,37.93
2022-11-29T11:01:22.026Z,36.90
2022-11-29T11:02:24.320Z,37.63
2022-11-29T11:03:34.769Z,34.53
2022-11-29T11:04:42.762Z,33.53
2022-11-29T11:05:55.936Z,35.50
2022-11-29T11:07:01.659Z,35.33
2022-11-29T11:08:05.377Z,34.60
2022-11-29T11:09:22.168Z,34.33
2022-11-29T11:10:28.166Z,32.67
2022-11-29T11:11:32.944Z,32.47
2022-11-29T11:12:34.916Z,34.67
2022-11-29T11:13:36.897Z,36.13
2022-11-29T11:14:38.726Z,32.93
2022-11-29T11:15:40.040Z,31.30
2022-11-29T11:16:41.416Z,31.17
2022-11-29T11:17:55.005Z,32.17
2022-11-29T11:18:56.441Z,27.87
2022-11-29T11:19:57.733Z,27.13
2022-11-29T11:21:00.405Z,27.87
2022-11-29T11:22:02.391Z,23.40
2022-11-29T11:23:05.342Z,26.37
2022-11-29T11:24:20.820Z,26.40
2022-11-29T11:25:35.589Z,27.03
2022-11-29T11:26:44.295Z,27.27
2022-11-29T11:27:45.745Z,24.87
2022-11-29T11:28:47.030Z,23.70
2022-11-29T11:29:52.537Z,26.70
2022-11-29T11:30:53.918Z,26.00
2022-11-29T11:31:59.427Z,28.33
2022-11-29T11:33:19.108Z,27.93
2022-11-29T11:34:23.570Z,27.07
2022-11-29T11:35:24.957Z,28.97
2022-11-29T11:36:27.352Z,30.70
2022-11-29T11:37:28.710Z,27.97
2022-11-29T11:38:30.129Z,28.73
2022-11-29T11:39:31.463Z,24.60
2022-11-29T11:40:34.494Z,27.47
2022-11-29T11:41:56.915Z,27.60
2022-11-29T11:42:59.273Z,28.63
2022-11-29T11:44:00.786Z,24.70
2022-11-29T11:45:11.103Z,24.97
2022-11-29T11:46:17.761Z,26.63
2022-11-29T11:47:21.356Z,24.47
2022-11-29T11:48:22.883Z,26.27
2022-11-29T11:49:26.289Z,26.90
2022-11-29T11:50:29.600Z,25.97
2022-11-29T11:51:31.012Z,25.40
2022-11-29T11:52:40.140Z,28.17
2022-11-29T11:53:44.186Z,34.80
2022-11-29T11:54:47.059Z,38.30
2022-11-29T11:56:01.705Z,34.67
2022-11-29T11:57:03.255Z,29.73
2022-11-29T11:58:09.848Z,38.70
2022-11-29T11:59:19.965Z,36.53
2022-11-29T12:02:00.942Z,28.40
2022-11-29T12:03:02.458Z,24.87
2022-11-29T12:04:10.306Z,23.27
2022-11-29T12:05:15.248Z,24.77
2022-11-29T12:06:16.555Z,24.23
2022-11-29T12:07:38.755Z,25.63
2022-11-29T12:08:44.916Z,24.23
2022-11-29T12:09:49.257Z,26.33
2022-11-29T12:10:52.306Z,27.23
2022-11-29T12:12:02.314Z,30.23
2022-11-29T12:13:04.513Z,24.67
2022-11-29T12:14:06.708Z,25.27
2022-11-29T12:15:17.226Z,27.93
2022-11-29T12:16:27.391Z,23.73
2022-11-29T12:17:46.527Z,28.17
2022-11-29T12:18:48.974Z,27.27
2022-11-29T12:20:04.413Z,24.00
2022-11-29T12:21:05.872Z,23.83
2022-11-29T12:22:08.723Z,24.30
2022-11-29T12:23:12.974Z,23.20
2022-11-29T12:24:23.692Z,27.70
2022-11-29T12:25:26.967Z,25.93
2022-11-29T12:26:55.945Z,24.20
2022-11-29T12:27:50.197Z,25.20
2022-11-29T12:28:52.338Z,24.30
2022-11-29T12:29:53.807Z,22.20
2022-11-29T12:31:05.565Z,25.57
2022-11-29T12:32:13.087Z,25.00
2022-11-29T12:33:14.505Z,28.23
2022-11-29T12:34:22.431Z,25.20
2022-11-29T12:35:24.278Z,25.50
2022-11-29T12:36:31.050Z,28.03
2022-11-29T12:37:37.417Z,31.20
2022-11-29T12:39:14.443Z,29.27
2022-11-29T12:40:23.470Z,30.80
2022-11-29T12:41:43.484Z,29.70
2022-11-29T12:42:53.990Z,34.37
2022-11-29T12:43:55.394Z,34.43
2022-11-29T12:45:01.053Z,32.63
2022-11-29T12:46:21.131Z,32.57
2022-11-29T12:47:45.226Z,32.80
2022-11-29T12:49:00.090Z,31.57
2022-11-29T12:50:16.785Z,30.13
2022-11-29T12:51:37.160Z,31.67
2022-11-29T12:52:50.818Z,36.10
2022-11-29T12:54:01.499Z,37.97
2022-11-29T12:55:08.473Z,37.13
2022-11-29T12:56:25.440Z,37.90
2022-11-29T12:57:26.910Z,39.77
2022-11-29T12:58:45.665Z,37.57
2022-11-29T12:59:50.884Z,34.70
2022-11-29T13:01:01.339Z,33.03
2022-11-29T13:02:03.439Z,34.97
2022-11-29T13:03:20.547Z,33.07
2022-11-29T13:04:38.787Z,31.53
2022-11-29T13:05:58.995Z,28.67
2022-11-29T13:07:03.406Z,31.37
2022-11-29T13:08:17.029Z,31.97
2022-11-29T13:09:25.029Z,28.47
2022-11-29T13:10:32.503Z,31.00
2022-11-29T13:11:36.262Z,33.27
2022-11-29T13:12:37.716Z,29.07
2022-11-29T13:13:40.889Z,27.70
2022-11-29T13:14:49.734Z,28.83
2022-11-29T13:16:13.579Z,26.63
2022-11-29T13:17:37.226Z,31.27
2022-11-29T13:18:43.568Z,32.97
2022-11-29T13:19:50.898Z,31.67
2022-11-29T13:21:01.307Z,32.10
2022-11-29T13:22:21.544Z,32.13
2022-11-29T13:23:39.415Z,33.80
2022-11-29T13:24:52.115Z,34.10
2022-11-29T13:25:56.026Z,30.67
2022-11-29T13:26:58.127Z,35.43
2022-11-29T13:28:07.164Z,36.10
2022-11-29T13:29:14.135Z,35.23
2022-11-29T13:30:15.717Z,37.10
2022-11-29T13:31:21.994Z,38.30
2022-11-29T13:32:29.743Z,36.70
2022-11-29T13:33:50.076Z,39.00
2022-11-29T13:34:53.137Z,37.23
2022-11-29T13:35:58.070Z,35.33
2022-11-29T13:37:05.941Z,38.90
2022-11-29T13:38:18.583Z,39.70
2022-11-29T13:39:39.142Z,38.10
2022-11-29T13:41:03.888Z,37.23
2022-11-29T13:42:10.568Z,37.43
2022-11-29T13:43:17.702Z,37.70
2022-11-29T13:44:31.557Z,36.93
2022-11-29T13:45:44.119Z,42.43
2022-11-29T13:46:49.979Z,33.40
2022-11-29T13:47:52.751Z,45.40
2022-11-29T13:48:54.865Z,42.77
2022-11-29T13:49:57.077Z,35.80
2022-11-29T13:50:58.807Z,44.20
2022-11-29T13:52:04.548Z,41.63
2022-11-29T13:53:19.197Z,41.53
2022-11-29T13:54:28.765Z,38.60
2022-11-29T13:55:31.703Z,40.87
2022-11-29T13:56:42.648Z,39.87
2022-11-29T13:58:15.456Z,39.30
2022-11-29T13:59:22.753Z,39.00
2022-11-29T14:00:26.979Z,45.40
2022-11-29T14:01:28.654Z,48.57
2022-11-29T14:02:31.617Z,47.17
2022-11-29T14:03:35.712Z,51.97
2022-11-29T14:04:45.312Z,53.23
2022-11-29T14:05:48.288Z,48.67
2022-11-29T14:06:50.901Z,48.83
2022-11-29T14:08:18.037Z,52.63
2022-11-29T14:09:25.222Z,48.97
2022-11-29T14:10:29.369Z,58.03
2022-11-29T14:11:45.545Z,67.43
2022-11-29T14:12:53.899Z,55.43
2022-11-29T14:14:04.516Z,58.87
2022-11-29T14:15:14.906Z,65.63
2022-11-29T14:16:25.262Z,58.80
2022-11-29T14:17:26.953Z,59.77
2022-11-29T14:18:37.645Z,64.70
2022-11-29T14:19:39.099Z,57.80
2022-11-29T14:20:43.699Z,61.00
2022-11-29T14:22:03.367Z,62.83
2022-11-29T14:23:04.958Z,63.53
2022-11-29T14:24:25.714Z,59.97
2022-11-29T14:26:52.858Z,57.33
2022-11-29T14:27:55.855Z,56.30
2022-11-29T14:28:57.838Z,54.07
2022-11-29T14:29:59.592Z,49.53
2022-11-29T14:31:02.656Z,57.40